sensor_id;sensor_type;location;lat;lon;timestamp;P1;durP1;ratioP1;P2;durP2;ratioP2
21243;SDS011;10780;50.942;4.028;2022-07-23T00:01:16;14.45;;;10.98;;
21243;SDS011;10780;50.942;4.028;2022-07-23T00:03:42;15.43;;;10.60;;
21243;SDS011;10780;50.942;4.028;2022-07-23T00:06:08;15.80;;;10.40;;
21243;SDS011;10780;50.942;4.028;2022-07-23T00:08:33;13.32;;;10.75;;
21243;SDS011;10780;50.942;4.028;2022-07-23T00:10:59;12.95;;;10.27;;
21243;SDS011;10780;50.942;4.028;2022-07-23T00:13:25;14.90;;;10.70;;
21243;SDS011;10780;50.942;4.028;2022-07-23T00:15:51;14.50;;;11.00;;
21243;SDS011;10780;50.942;4.028;2022-07-23T00:18:17;14.82;;;10.77;;
21243;SDS011;10780;50.942;4.028;2022-07-23T00:20:43;14.10;;;10.77;;
21243;SDS011;10780;50.942;4.028;2022-07-23T00:23:09;13.43;;;10.90;;
21243;SDS011;10780;50.942;4.028;2022-07-23T00:25:34;15.10;;;11.02;;
21243;SDS011;10780;50.942;4.028;2022-07-23T00:28:02;17.92;;;11.15;;
21243;SDS011;10780;50.942;4.028;2022-07-23T00:30:29;16.45;;;12.52;;
21243;SDS011;10780;50.942;4.028;2022-07-23T00:33:02;15.60;;;11.23;;
21243;SDS011;10780;50.942;4.028;2022-07-23T00:35:31;18.00;;;13.13;;
21243;SDS011;10780;50.942;4.028;2022-07-23T00:37:59;17.20;;;12.13;;
21243;SDS011;10780;50.942;4.028;2022-07-23T00:40:25;18.90;;;12.82;;
21243;SDS011;10780;50.942;4.028;2022-07-23T00:42:52;17.77;;;12.52;;
21243;SDS011;10780;50.942;4.028;2022-07-23T00:45:18;16.95;;;13.57;;
21243;SDS011;10780;50.942;4.028;2022-07-23T00:47:43;17.27;;;12.43;;
21243;SDS011;10780;50.942;4.028;2022-07-23T00:50:09;15.43;;;12.88;;
21243;SDS011;10780;50.942;4.028;2022-07-23T00:52:36;17.67;;;14.13;;
21243;SDS011;10780;50.942;4.028;2022-07-23T00:55:05;16.77;;;12.98;;
21243;SDS011;10780;50.942;4.028;2022-07-23T00:57:33;18.52;;;13.55;;
21243;SDS011;10780;50.942;4.028;2022-07-23T00:59:59;21.00;;;13.73;;
21243;SDS011;10780;50.942;4.028;2022-07-23T01:02:25;18.23;;;13.10;;
21243;SDS011;10780;50.942;4.028;2022-07-23T01:04:51;18.80;;;13.18;;
21243;SDS011;10780;50.942;4.028;2022-07-23T01:07:18;19.33;;;14.23;;
21243;SDS011;10780;50.942;4.028;2022-07-23T01:09:44;20.13;;;13.95;;
21243;SDS011;10780;50.942;4.028;2022-07-23T01:12:10;18.73;;;14.13;;
21243;SDS011;10780;50.942;4.028;2022-07-23T01:14:36;15.40;;;13.45;;
21243;SDS011;10780;50.942;4.028;2022-07-23T01:17:02;21.20;;;14.02;;
21243;SDS011;10780;50.942;4.028;2022-07-23T01:19:27;15.60;;;13.40;;
21243;SDS011;10780;50.942;4.028;2022-07-23T01:21:53;17.85;;;12.77;;
21243;SDS011;10780;50.942;4.028;2022-07-23T01:24:21;16.55;;;12.20;;
21243;SDS011;10780;50.942;4.028;2022-07-23T01:26:47;17.33;;;12.45;;
21243;SDS011;10780;50.942;4.028;2022-07-23T01:29:13;19.20;;;13.85;;
21243;SDS011;10780;50.942;4.028;2022-07-23T01:31:40;20.33;;;13.90;;
21243;SDS011;10780;50.942;4.028;2022-07-23T01:34:06;18.00;;;13.35;;
21243;SDS011;10780;50.942;4.028;2022-07-23T01:36:32;18.38;;;13.32;;
21243;SDS011;10780;50.942;4.028;2022-07-23T01:38:58;16.48;;;12.65;;
21243;SDS011;10780;50.942;4.028;2022-07-23T01:41:24;18.52;;;13.93;;
21243;SDS011;10780;50.942;4.028;2022-07-23T01:43:49;18.60;;;14.02;;
21243;SDS011;10780;50.942;4.028;2022-07-23T01:46:15;18.23;;;14.25;;
21243;SDS011;10780;50.942;4.028;2022-07-23T01:48:41;18.42;;;14.23;;
21243;SDS011;10780;50.942;4.028;2022-07-23T01:51:07;19.77;;;14.13;;
21243;SDS011;10780;50.942;4.028;2022-07-23T01:53:32;18.83;;;13.70;;
21243;SDS011;10780;50.942;4.028;2022-07-23T01:55:58;15.80;;;12.70;;
21243;SDS011;10780;50.942;4.028;2022-07-23T01:58:25;17.30;;;13.15;;
21243;SDS011;10780;50.942;4.028;2022-07-23T02:00:51;19.60;;;13.60;;
21243;SDS011;10780;50.942;4.028;2022-07-23T02:03:17;21.77;;;14.23;;
21243;SDS011;10780;50.942;4.028;2022-07-23T02:05:43;15.88;;;13.15;;
21243;SDS011;10780;50.942;4.028;2022-07-23T02:08:09;17.33;;;12.45;;
21243;SDS011;10780;50.942;4.028;2022-07-23T02:10:34;16.13;;;12.80;;
21243;SDS011;10780;50.942;4.028;2022-07-23T02:13:00;16.35;;;13.13;;
21243;SDS011;10780;50.942;4.028;2022-07-23T02:15:25;18.73;;;13.20;;
21243;SDS011;10780;50.942;4.028;2022-07-23T02:17:51;17.83;;;13.35;;
21243;SDS011;10780;50.942;4.028;2022-07-23T02:20:17;18.20;;;12.85;;
21243;SDS011;10780;50.942;4.028;2022-07-23T02:22:43;17.35;;;14.85;;
21243;SDS011;10780;50.942;4.028;2022-07-23T02:25:08;20.02;;;14.27;;
21243;SDS011;10780;50.942;4.028;2022-07-23T02:27:35;18.67;;;13.80;;
21243;SDS011;10780;50.942;4.028;2022-07-23T02:30:02;20.20;;;14.10;;
21243;SDS011;10780;50.942;4.028;2022-07-23T02:32:28;17.83;;;14.63;;
21243;SDS011;10780;50.942;4.028;2022-07-23T02:34:54;22.50;;;14.57;;
21243;SDS011;10780;50.942;4.028;2022-07-23T02:37:19;19.23;;;14.43;;
21243;SDS011;10780;50.942;4.028;2022-07-23T02:39:45;17.73;;;14.70;;
21243;SDS011;10780;50.942;4.028;2022-07-23T02:42:13;20.08;;;14.98;;
21243;SDS011;10780;50.942;4.028;2022-07-23T02:44:39;19.20;;;14.48;;
21243;SDS011;10780;50.942;4.028;2022-07-23T02:47:04;19.67;;;14.27;;
21243;SDS011;10780;50.942;4.028;2022-07-23T02:49:30;21.10;;;14.52;;
21243;SDS011;10780;50.942;4.028;2022-07-23T02:51:56;19.52;;;14.55;;
21243;SDS011;10780;50.942;4.028;2022-07-23T02:54:21;19.50;;;14.85;;
21243;SDS011;10780;50.942;4.028;2022-07-23T02:56:47;20.65;;;15.45;;
21243;SDS011;10780;50.942;4.028;2022-07-23T02:59:13;20.10;;;15.65;;
21243;SDS011;10780;50.942;4.028;2022-07-23T03:01:38;26.40;;;17.40;;
21243;SDS011;10780;50.942;4.028;2022-07-23T03:04:04;23.30;;;16.77;;
21243;SDS011;10780;50.942;4.028;2022-07-23T03:06:29;22.05;;;17.55;;
21243;SDS011;10780;50.942;4.028;2022-07-23T03:08:55;21.60;;;16.42;;
21243;SDS011;10780;50.942;4.028;2022-07-23T03:11:21;21.75;;;17.38;;
21243;SDS011;10780;50.942;4.028;2022-07-23T03:13:46;23.98;;;17.52;;
21243;SDS011;10780;50.942;4.028;2022-07-23T03:16:12;24.40;;;18.10;;
21243;SDS011;10780;50.942;4.028;2022-07-23T03:18:38;28.42;;;18.10;;
21243;SDS011;10780;50.942;4.028;2022-07-23T03:21:03;27.00;;;18.58;;
21243;SDS011;10780;50.942;4.028;2022-07-23T03:23:29;23.38;;;17.00;;
21243;SDS011;10780;50.942;4.028;2022-07-23T03:25:54;20.45;;;15.38;;
21243;SDS011;10780;50.942;4.028;2022-07-23T03:28:20;20.17;;;16.30;;
21243;SDS011;10780;50.942;4.028;2022-07-23T03:30:46;19.75;;;15.60;;
21243;SDS011;10780;50.942;4.028;2022-07-23T03:33:13;19.13;;;15.45;;
21243;SDS011;10780;50.942;4.028;2022-07-23T03:35:39;21.45;;;15.52;;
21243;SDS011;10780;50.942;4.028;2022-07-23T03:38:05;20.08;;;15.50;;
21243;SDS011;10780;50.942;4.028;2022-07-23T03:40:31;21.73;;;15.90;;
21243;SDS011;10780;50.942;4.028;2022-07-23T03:42:56;22.70;;;16.42;;
21243;SDS011;10780;50.942;4.028;2022-07-23T03:45:22;21.83;;;15.73;;
21243;SDS011;10780;50.942;4.028;2022-07-23T03:47:48;18.50;;;15.70;;
21243;SDS011;10780;50.942;4.028;2022-07-23T03:50:13;24.10;;;15.07;;
21243;SDS011;10780;50.942;4.028;2022-07-23T03:52:39;20.95;;;14.55;;
21243;SDS011;10780;50.942;4.028;2022-07-23T03:55:05;21.38;;;15.82;;
21243;SDS011;10780;50.942;4.028;2022-07-23T03:57:31;20.23;;;15.77;;
21243;SDS011;10780;50.942;4.028;2022-07-23T03:59:57;21.55;;;16.40;;
21243;SDS011;10780;50.942;4.028;2022-07-23T04:02:22;18.33;;;15.02;;
21243;SDS011;10780;50.942;4.028;2022-07-23T04:04:48;23.27;;;15.15;;
21243;SDS011;10780;50.942;4.028;2022-07-23T04:07:14;22.30;;;15.52;;
21243;SDS011;10780;50.942;4.028;2022-07-23T04:09:40;22.35;;;15.43;;
21243;SDS011;10780;50.942;4.028;2022-07-23T04:12:06;27.35;;;15.75;;
21243;SDS011;10780;50.942;4.028;2022-07-23T04:14:32;21.48;;;15.90;;
21243;SDS011;10780;50.942;4.028;2022-07-23T04:16:58;20.08;;;14.80;;
21243;SDS011;10780;50.942;4.028;2022-07-23T04:19:24;21.02;;;15.55;;
21243;SDS011;10780;50.942;4.028;2022-07-23T04:21:50;25.05;;;16.17;;
21243;SDS011;10780;50.942;4.028;2022-07-23T04:24:15;21.00;;;15.38;;
21243;SDS011;10780;50.942;4.028;2022-07-23T04:26:41;19.80;;;14.95;;
21243;SDS011;10780;50.942;4.028;2022-07-23T04:29:06;20.20;;;14.75;;
21243;SDS011;10780;50.942;4.028;2022-07-23T04:31:32;19.90;;;14.70;;
21243;SDS011;10780;50.942;4.028;2022-07-23T04:33:58;18.25;;;14.50;;
21243;SDS011;10780;50.942;4.028;2022-07-23T04:36:23;21.08;;;15.90;;
21243;SDS011;10780;50.942;4.028;2022-07-23T04:38:49;20.45;;;14.00;;
21243;SDS011;10780;50.942;4.028;2022-07-23T04:41:14;18.75;;;13.85;;
21243;SDS011;10780;50.942;4.028;2022-07-23T04:43:40;18.02;;;14.07;;
21243;SDS011;10780;50.942;4.028;2022-07-23T04:46:06;19.02;;;13.35;;
21243;SDS011;10780;50.942;4.028;2022-07-23T04:48:31;19.90;;;14.30;;
21243;SDS011;10780;50.942;4.028;2022-07-23T04:50:57;20.95;;;14.23;;
21243;SDS011;10780;50.942;4.028;2022-07-23T04:53:22;21.80;;;14.27;;
21243;SDS011;10780;50.942;4.028;2022-07-23T04:55:48;17.88;;;13.75;;
21243;SDS011;10780;50.942;4.028;2022-07-23T04:58:14;18.80;;;12.90;;
21243;SDS011;10780;50.942;4.028;2022-07-23T05:00:39;17.75;;;13.82;;
21243;SDS011;10780;50.942;4.028;2022-07-23T05:03:05;18.30;;;13.75;;
21243;SDS011;10780;50.942;4.028;2022-07-23T05:05:31;18.23;;;13.00;;
21243;SDS011;10780;50.942;4.028;2022-07-23T05:07:56;16.95;;;13.38;;
21243;SDS011;10780;50.942;4.028;2022-07-23T05:10:22;18.25;;;13.05;;
21243;SDS011;10780;50.942;4.028;2022-07-23T05:12:47;15.75;;;12.73;;
21243;SDS011;10780;50.942;4.028;2022-07-23T05:15:13;19.98;;;13.50;;
21243;SDS011;10780;50.942;4.028;2022-07-23T05:17:39;15.75;;;12.73;;
21243;SDS011;10780;50.942;4.028;2022-07-23T05:20:04;17.65;;;13.60;;
21243;SDS011;10780;50.942;4.028;2022-07-23T05:22:30;16.90;;;13.60;;
21243;SDS011;10780;50.942;4.028;2022-07-23T05:24:56;19.80;;;14.38;;
21243;SDS011;10780;50.942;4.028;2022-07-23T05:27:22;18.63;;;13.63;;
21243;SDS011;10780;50.942;4.028;2022-07-23T05:29:47;17.75;;;13.70;;
21243;SDS011;10780;50.942;4.028;2022-07-23T05:32:13;18.17;;;13.65;;
21243;SDS011;10780;50.942;4.028;2022-07-23T05:34:38;17.80;;;13.05;;
21243;SDS011;10780;50.942;4.028;2022-07-23T05:37:05;19.25;;;13.52;;
21243;SDS011;10780;50.942;4.028;2022-07-23T05:39:31;15.98;;;13.05;;
21243;SDS011;10780;50.942;4.028;2022-07-23T05:41:56;17.55;;;13.45;;
21243;SDS011;10780;50.942;4.028;2022-07-23T05:44:22;18.90;;;14.35;;
21243;SDS011;10780;50.942;4.028;2022-07-23T05:46:48;21.42;;;14.25;;
21243;SDS011;10780;50.942;4.028;2022-07-23T05:49:14;19.55;;;13.77;;
21243;SDS011;10780;50.942;4.028;2022-07-23T05:51:39;19.80;;;14.38;;
21243;SDS011;10780;50.942;4.028;2022-07-23T05:54:05;22.15;;;15.90;;
21243;SDS011;10780;50.942;4.028;2022-07-23T05:56:30;20.13;;;15.27;;
21243;SDS011;10780;50.942;4.028;2022-07-23T05:58:56;22.40;;;14.70;;
21243;SDS011;10780;50.942;4.028;2022-07-23T06:01:22;16.30;;;13.55;;
21243;SDS011;10780;50.942;4.028;2022-07-23T06:03:47;17.77;;;14.77;;
21243;SDS011;10780;50.942;4.028;2022-07-23T06:06:13;19.25;;;14.50;;
21243;SDS011;10780;50.942;4.028;2022-07-23T06:08:39;18.85;;;13.77;;
21243;SDS011;10780;50.942;4.028;2022-07-23T06:11:04;18.25;;;14.02;;
21243;SDS011;10780;50.942;4.028;2022-07-23T06:13:30;18.63;;;13.90;;
21243;SDS011;10780;50.942;4.028;2022-07-23T06:15:55;18.27;;;13.18;;
21243;SDS011;10780;50.942;4.028;2022-07-23T06:18:21;17.30;;;12.75;;
21243;SDS011;10780;50.942;4.028;2022-07-23T06:20:47;15.90;;;12.00;;
21243;SDS011;10780;50.942;4.028;2022-07-23T06:23:12;18.02;;;13.23;;
21243;SDS011;10780;50.942;4.028;2022-07-23T06:25:38;18.73;;;14.57;;
21243;SDS011;10780;50.942;4.028;2022-07-23T06:28:04;16.58;;;13.38;;
21243;SDS011;10780;50.942;4.028;2022-07-23T06:30:30;19.05;;;14.32;;
21243;SDS011;10780;50.942;4.028;2022-07-23T06:32:55;18.35;;;13.38;;
21243;SDS011;10780;50.942;4.028;2022-07-23T06:35:21;17.25;;;13.55;;
21243;SDS011;10780;50.942;4.028;2022-07-23T06:37:47;15.65;;;13.48;;
21243;SDS011;10780;50.942;4.028;2022-07-23T06:40:12;19.35;;;13.68;;
21243;SDS011;10780;50.942;4.028;2022-07-23T06:42:38;17.52;;;13.07;;
21243;SDS011;10780;50.942;4.028;2022-07-23T06:45:06;20.63;;;13.68;;
21243;SDS011;10780;50.942;4.028;2022-07-23T06:47:32;15.95;;;12.25;;
21243;SDS011;10780;50.942;4.028;2022-07-23T06:49:58;15.40;;;11.80;;
21243;SDS011;10780;50.942;4.028;2022-07-23T06:52:24;14.40;;;11.85;;
21243;SDS011;10780;50.942;4.028;2022-07-23T06:54:50;15.57;;;11.55;;
21243;SDS011;10780;50.942;4.028;2022-07-23T06:57:16;12.63;;;11.32;;
21243;SDS011;10780;50.942;4.028;2022-07-23T06:59:42;13.48;;;11.45;;
21243;SDS011;10780;50.942;4.028;2022-07-23T07:02:08;14.77;;;11.45;;
21243;SDS011;10780;50.942;4.028;2022-07-23T07:04:33;15.02;;;11.20;;
21243;SDS011;10780;50.942;4.028;2022-07-23T07:06:59;16.20;;;12.05;;
21243;SDS011;10780;50.942;4.028;2022-07-23T07:09:25;14.40;;;11.45;;
21243;SDS011;10780;50.942;4.028;2022-07-23T07:11:51;16.40;;;12.35;;
21243;SDS011;10780;50.942;4.028;2022-07-23T07:14:17;15.48;;;12.18;;
21243;SDS011;10780;50.942;4.028;2022-07-23T07:16:42;16.15;;;12.30;;
21243;SDS011;10780;50.942;4.028;2022-07-23T07:19:08;23.33;;;13.88;;
21243;SDS011;10780;50.942;4.028;2022-07-23T07:21:34;16.95;;;12.15;;
21243;SDS011;10780;50.942;4.028;2022-07-23T07:24:00;17.77;;;12.38;;
21243;SDS011;10780;50.942;4.028;2022-07-23T07:26:25;14.85;;;12.23;;
21243;SDS011;10780;50.942;4.028;2022-07-23T07:28:51;16.60;;;12.30;;
21243;SDS011;10780;50.942;4.028;2022-07-23T07:31:17;16.95;;;11.80;;
21243;SDS011;10780;50.942;4.028;2022-07-23T07:33:42;16.75;;;12.00;;
21243;SDS011;10780;50.942;4.028;2022-07-23T07:36:08;16.65;;;12.20;;
21243;SDS011;10780;50.942;4.028;2022-07-23T07:38:34;13.95;;;11.93;;
21243;SDS011;10780;50.942;4.028;2022-07-23T07:40:59;14.25;;;11.80;;
21243;SDS011;10780;50.942;4.028;2022-07-23T07:43:25;15.05;;;12.38;;
21243;SDS011;10780;50.942;4.028;2022-07-23T07:45:51;14.45;;;10.90;;
21243;SDS011;10780;50.942;4.028;2022-07-23T07:48:17;17.40;;;12.55;;
21243;SDS011;10780;50.942;4.028;2022-07-23T07:50:43;15.90;;;11.52;;
21243;SDS011;10780;50.942;4.028;2022-07-23T07:53:08;14.70;;;11.25;;
21243;SDS011;10780;50.942;4.028;2022-07-23T07:55:34;17.50;;;12.27;;
21243;SDS011;10780;50.942;4.028;2022-07-23T07:58:00;15.18;;;12.27;;
21243;SDS011;10780;50.942;4.028;2022-07-23T08:00:26;15.20;;;12.27;;
21243;SDS011;10780;50.942;4.028;2022-07-23T08:02:52;14.55;;;11.55;;
21243;SDS011;10780;50.942;4.028;2022-07-23T08:05:23;14.07;;;10.07;;
21243;SDS011;10780;50.942;4.028;2022-07-23T08:07:51;14.60;;;10.60;;
21243;SDS011;10780;50.942;4.028;2022-07-23T08:10:17;14.38;;;10.77;;
21243;SDS011;10780;50.942;4.028;2022-07-23T08:12:46;11.95;;;10.32;;
21243;SDS011;10780;50.942;4.028;2022-07-23T08:15:18;18.33;;;12.07;;
21243;SDS011;10780;50.942;4.028;2022-07-23T08:17:45;16.35;;;11.43;;
21243;SDS011;10780;50.942;4.028;2022-07-23T08:20:13;16.05;;;11.52;;
21243;SDS011;10780;50.942;4.028;2022-07-23T08:22:43;13.82;;;10.75;;
21243;SDS011;10780;50.942;4.028;2022-07-23T08:25:09;13.60;;;10.88;;
21243;SDS011;10780;50.942;4.028;2022-07-23T08:27:35;12.60;;;11.10;;
21243;SDS011;10780;50.942;4.028;2022-07-23T08:30:01;13.38;;;10.20;;
21243;SDS011;10780;50.942;4.028;2022-07-23T08:32:26;12.75;;;8.98;;
21243;SDS011;10780;50.942;4.028;2022-07-23T08:34:52;11.23;;;8.70;;
21243;SDS011;10780;50.942;4.028;2022-07-23T08:37:17;12.13;;;10.27;;
21243;SDS011;10780;50.942;4.028;2022-07-23T08:39:43;12.30;;;8.98;;
21243;SDS011;10780;50.942;4.028;2022-07-23T08:42:08;12.25;;;9.70;;
21243;SDS011;10780;50.942;4.028;2022-07-23T08:44:35;13.05;;;9.50;;
21243;SDS011;10780;50.942;4.028;2022-07-23T08:47:00;13.20;;;8.15;;
21243;SDS011;10780;50.942;4.028;2022-07-23T08:49:27;10.25;;;7.72;;
21243;SDS011;10780;50.942;4.028;2022-07-23T08:51:54;10.32;;;8.38;;
21243;SDS011;10780;50.942;4.028;2022-07-23T08:54:20;7.18;;;6.47;;
21243;SDS011;10780;50.942;4.028;2022-07-23T08:56:47;9.02;;;6.25;;
21243;SDS011;10780;50.942;4.028;2022-07-23T08:59:13;8.38;;;5.07;;
21243;SDS011;10780;50.942;4.028;2022-07-23T09:01:39;6.38;;;4.93;;
21243;SDS011;10780;50.942;4.028;2022-07-23T09:04:05;7.55;;;5.22;;
21243;SDS011;10780;50.942;4.028;2022-07-23T09:06:31;6.43;;;5.28;;
21243;SDS011;10780;50.942;4.028;2022-07-23T09:08:57;11.30;;;6.30;;
21243;SDS011;10780;50.942;4.028;2022-07-23T09:11:22;8.40;;;7.00;;
21243;SDS011;10780;50.942;4.028;2022-07-23T09:13:49;9.43;;;6.18;;
21243;SDS011;10780;50.942;4.028;2022-07-23T09:18:55;7.05;;;5.90;;
21243;SDS011;10780;50.942;4.028;2022-07-23T09:21:32;8.10;;;6.07;;
21243;SDS011;10780;50.942;4.028;2022-07-23T09:24:02;6.65;;;5.93;;
21243;SDS011;10780;50.942;4.028;2022-07-23T09:29:08;9.50;;;5.88;;
21243;SDS011;10780;50.942;4.028;2022-07-23T09:31:42;7.38;;;6.15;;
21243;SDS011;10780;50.942;4.028;2022-07-23T09:34:27;8.43;;;6.50;;
21243;SDS011;10780;50.942;4.028;2022-07-23T09:37:17;8.05;;;6.75;;
21243;SDS011;10780;50.942;4.028;2022-07-23T09:39:44;6.65;;;5.85;;
21243;SDS011;10780;50.942;4.028;2022-07-23T09:42:21;6.90;;;6.20;;
21243;SDS011;10780;50.942;4.028;2022-07-23T09:44:47;7.22;;;6.03;;
21243;SDS011;10780;50.942;4.028;2022-07-23T09:47:15;8.52;;;5.43;;
21243;SDS011;10780;50.942;4.028;2022-07-23T09:49:57;6.28;;;5.38;;
21243;SDS011;10780;50.942;4.028;2022-07-23T09:52:26;7.82;;;5.13;;
21243;SDS011;10780;50.942;4.028;2022-07-23T09:54:57;5.97;;;5.35;;
21243;SDS011;10780;50.942;4.028;2022-07-23T09:57:25;8.45;;;5.32;;
21243;SDS011;10780;50.942;4.028;2022-07-23T09:59:51;6.05;;;4.75;;
21243;SDS011;10780;50.942;4.028;2022-07-23T10:02:17;6.78;;;4.97;;
21243;SDS011;10780;50.942;4.028;2022-07-23T10:04:43;6.47;;;4.93;;
21243;SDS011;10780;50.942;4.028;2022-07-23T10:07:09;6.60;;;5.18;;
21243;SDS011;10780;50.942;4.028;2022-07-23T10:09:36;7.55;;;5.35;;
21243;SDS011;10780;50.942;4.028;2022-07-23T10:12:04;6.50;;;4.80;;
21243;SDS011;10780;50.942;4.028;2022-07-23T10:14:38;5.93;;;5.00;;
21243;SDS011;10780;50.942;4.028;2022-07-23T10:17:04;5.32;;;4.03;;
21243;SDS011;10780;50.942;4.028;2022-07-23T10:19:31;7.10;;;4.68;;
21243;SDS011;10780;50.942;4.028;2022-07-23T10:21:58;7.47;;;5.20;;
21243;SDS011;10780;50.942;4.028;2022-07-23T10:30:44;4.20;;;3.80;;
21243;SDS011;10780;50.942;4.028;2022-07-23T10:38:13;5.85;;;4.20;;
21243;SDS011;10780;50.942;4.028;2022-07-23T10:43:24;6.28;;;4.60;;
21243;SDS011;10780;50.942;4.028;2022-07-23T10:45:51;6.80;;;4.82;;
21243;SDS011;10780;50.942;4.028;2022-07-23T10:48:24;5.53;;;4.45;;
21243;SDS011;10780;50.942;4.028;2022-07-23T10:51:14;9.05;;;5.03;;
21243;SDS011;10780;50.942;4.028;2022-07-23T11:02:29;4.90;;;4.25;;
21243;SDS011;10780;50.942;4.028;2022-07-23T11:04:59;6.18;;;4.28;;
21243;SDS011;10780;50.942;4.028;2022-07-23T11:07:36;6.22;;;4.40;;
21243;SDS011;10780;50.942;4.028;2022-07-23T11:13:29;4.97;;;4.10;;
21243;SDS011;10780;50.942;4.028;2022-07-23T11:18:57;4.28;;;3.83;;
21243;SDS011;10780;50.942;4.028;2022-07-23T11:23:59;4.40;;;3.85;;
21243;SDS011;10780;50.942;4.028;2022-07-23T11:34:33;5.65;;;3.83;;
21243;SDS011;10780;50.942;4.028;2022-07-23T11:36:59;4.47;;;4.07;;
21243;SDS011;10780;50.942;4.028;2022-07-23T11:39:27;6.03;;;4.57;;
21243;SDS011;10780;50.942;4.028;2022-07-23T11:41:54;4.88;;;3.70;;
21243;SDS011;10780;50.942;4.028;2022-07-23T11:44:24;5.93;;;4.35;;
21243;SDS011;10780;50.942;4.028;2022-07-23T11:46:57;6.00;;;4.13;;
21243;SDS011;10780;50.942;4.028;2022-07-23T11:49:26;6.20;;;4.72;;
21243;SDS011;10780;50.942;4.028;2022-07-23T11:54:31;4.07;;;3.35;;
21243;SDS011;10780;50.942;4.028;2022-07-23T11:56:58;4.10;;;3.70;;
21243;SDS011;10780;50.942;4.028;2022-07-23T11:59:32;5.38;;;4.22;;
21243;SDS011;10780;50.942;4.028;2022-07-23T12:01:59;4.80;;;3.80;;
21243;SDS011;10780;50.942;4.028;2022-07-23T12:04:43;5.03;;;3.80;;
21243;SDS011;10780;50.942;4.028;2022-07-23T12:10:04;4.95;;;3.53;;
21243;SDS011;10780;50.942;4.028;2022-07-23T12:15:18;5.25;;;3.95;;
21243;SDS011;10780;50.942;4.028;2022-07-23T12:17:47;4.70;;;3.88;;
21243;SDS011;10780;50.942;4.028;2022-07-23T12:20:15;3.97;;;3.50;;
21243;SDS011;10780;50.942;4.028;2022-07-23T12:22:44;3.95;;;3.55;;
21243;SDS011;10780;50.942;4.028;2022-07-23T12:25:12;4.20;;;3.45;;
21243;SDS011;10780;50.942;4.028;2022-07-23T12:27:43;3.55;;;3.20;;
21243;SDS011;10780;50.942;4.028;2022-07-23T12:30:25;3.80;;;3.40;;
21243;SDS011;10780;50.942;4.028;2022-07-23T12:32:54;5.72;;;3.60;;
21243;SDS011;10780;50.942;4.028;2022-07-23T12:35:22;3.72;;;3.42;;
21243;SDS011;10780;50.942;4.028;2022-07-23T12:37:50;3.60;;;3.30;;
21243;SDS011;10780;50.942;4.028;2022-07-23T12:43:39;6.00;;;4.05;;
21243;SDS011;10780;50.942;4.028;2022-07-23T12:45:52;5.55;;;3.78;;
21243;SDS011;10780;50.942;4.028;2022-07-23T12:48:23;3.90;;;3.03;;
21243;SDS011;10780;50.942;4.028;2022-07-23T12:50:58;3.85;;;3.53;;
21243;SDS011;10780;50.942;4.028;2022-07-23T12:58:40;5.40;;;4.18;;
21243;SDS011;10780;50.942;4.028;2022-07-23T13:01:07;4.15;;;3.75;;
21243;SDS011;10780;50.942;4.028;2022-07-23T13:03:42;5.45;;;4.18;;
21243;SDS011;10780;50.942;4.028;2022-07-23T13:06:08;3.90;;;3.40;;
21243;SDS011;10780;50.942;4.028;2022-07-23T13:08:36;7.70;;;4.03;;
21243;SDS011;10780;50.942;4.028;2022-07-23T13:11:04;4.93;;;3.78;;
21243;SDS011;10780;50.942;4.028;2022-07-23T13:13:32;4.45;;;3.67;;
21243;SDS011;10780;50.942;4.028;2022-07-23T13:15:59;5.43;;;3.65;;
21243;SDS011;10780;50.942;4.028;2022-07-23T13:18:25;4.25;;;3.63;;
21243;SDS011;10780;50.942;4.028;2022-07-23T13:20:52;6.35;;;4.25;;
21243;SDS011;10780;50.942;4.028;2022-07-23T13:23:18;4.18;;;3.60;;
21243;SDS011;10780;50.942;4.028;2022-07-23T13:25:44;4.38;;;3.97;;
21243;SDS011;10780;50.942;4.028;2022-07-23T13:28:11;6.05;;;3.70;;
21243;SDS011;10780;50.942;4.028;2022-07-23T13:30:37;6.90;;;4.28;;
21243;SDS011;10780;50.942;4.028;2022-07-23T13:33:04;4.78;;;4.07;;
21243;SDS011;10780;50.942;4.028;2022-07-23T13:35:30;6.32;;;4.22;;
21243;SDS011;10780;50.942;4.028;2022-07-23T13:37:56;6.38;;;3.80;;
21243;SDS011;10780;50.942;4.028;2022-07-23T13:40:22;7.40;;;4.13;;
21243;SDS011;10780;50.942;4.028;2022-07-23T13:42:48;6.85;;;3.92;;
21243;SDS011;10780;50.942;4.028;2022-07-23T13:45:13;4.30;;;3.92;;
21243;SDS011;10780;50.942;4.028;2022-07-23T13:47:39;5.53;;;3.95;;
21243;SDS011;10780;50.942;4.028;2022-07-23T13:50:05;5.90;;;3.63;;
21243;SDS011;10780;50.942;4.028;2022-07-23T13:52:31;3.88;;;3.53;;
21243;SDS011;10780;50.942;4.028;2022-07-23T13:54:59;3.97;;;3.67;;
21243;SDS011;10780;50.942;4.028;2022-07-23T13:57:31;5.13;;;3.63;;
21243;SDS011;10780;50.942;4.028;2022-07-23T13:59:57;4.88;;;4.45;;
21243;SDS011;10780;50.942;4.028;2022-07-23T14:02:23;4.85;;;4.38;;
21243;SDS011;10780;50.942;4.028;2022-07-23T14:04:49;5.72;;;3.65;;
21243;SDS011;10780;50.942;4.028;2022-07-23T14:07:15;4.68;;;3.78;;
21243;SDS011;10780;50.942;4.028;2022-07-23T14:09:41;3.92;;;3.63;;
21243;SDS011;10780;50.942;4.028;2022-07-23T14:12:06;4.38;;;3.70;;
21243;SDS011;10780;50.942;4.028;2022-07-23T14:14:33;4.10;;;3.70;;
21243;SDS011;10780;50.942;4.028;2022-07-23T14:16:58;4.68;;;4.15;;
21243;SDS011;10780;50.942;4.028;2022-07-23T14:19:24;5.00;;;4.47;;
21243;SDS011;10780;50.942;4.028;2022-07-23T14:21:50;5.28;;;4.78;;
21243;SDS011;10780;50.942;4.028;2022-07-23T14:24:16;5.15;;;4.43;;
21243;SDS011;10780;50.942;4.028;2022-07-23T14:26:41;6.50;;;5.00;;
21243;SDS011;10780;50.942;4.028;2022-07-23T14:29:07;5.25;;;4.32;;
21243;SDS011;10780;50.942;4.028;2022-07-23T14:31:33;6.95;;;4.50;;
21243;SDS011;10780;50.942;4.028;2022-07-23T14:33:59;5.70;;;4.22;;
21243;SDS011;10780;50.942;4.028;2022-07-23T14:36:24;4.95;;;4.15;;
21243;SDS011;10780;50.942;4.028;2022-07-23T14:38:50;5.82;;;4.22;;
21243;SDS011;10780;50.942;4.028;2022-07-23T14:41:16;6.22;;;4.78;;
21243;SDS011;10780;50.942;4.028;2022-07-23T14:43:42;6.25;;;4.80;;
21243;SDS011;10780;50.942;4.028;2022-07-23T14:46:08;5.15;;;4.50;;
21243;SDS011;10780;50.942;4.028;2022-07-23T14:48:34;4.82;;;4.40;;
21243;SDS011;10780;50.942;4.028;2022-07-23T14:51:01;4.65;;;4.22;;
21243;SDS011;10780;50.942;4.028;2022-07-23T14:53:27;4.85;;;4.45;;
21243;SDS011;10780;50.942;4.028;2022-07-23T14:55:53;6.75;;;4.50;;
21243;SDS011;10780;50.942;4.028;2022-07-23T14:58:19;7.18;;;4.38;;
21243;SDS011;10780;50.942;4.028;2022-07-23T15:00:45;5.03;;;4.28;;
21243;SDS011;10780;50.942;4.028;2022-07-23T15:03:11;6.25;;;4.55;;
21243;SDS011;10780;50.942;4.028;2022-07-23T15:05:36;6.75;;;4.88;;
21243;SDS011;10780;50.942;4.028;2022-07-23T15:08:02;5.28;;;4.88;;
21243;SDS011;10780;50.942;4.028;2022-07-23T15:10:28;4.88;;;4.47;;
21243;SDS011;10780;50.942;4.028;2022-07-23T15:12:54;4.97;;;4.57;;
21243;SDS011;10780;50.942;4.028;2022-07-23T15:15:19;4.90;;;4.50;;
21243;SDS011;10780;50.942;4.028;2022-07-23T15:17:45;5.93;;;4.45;;
21243;SDS011;10780;50.942;4.028;2022-07-23T15:20:11;5.35;;;4.50;;
21243;SDS011;10780;50.942;4.028;2022-07-23T15:22:37;4.68;;;4.28;;
21243;SDS011;10780;50.942;4.028;2022-07-23T15:25:03;4.88;;;4.10;;
21243;SDS011;10780;50.942;4.028;2022-07-23T15:27:29;5.43;;;4.95;;
21243;SDS011;10780;50.942;4.028;2022-07-23T15:29:55;5.25;;;4.75;;